Flight Track Log - Related Links

Times and Time Zones

All times are in EDT time to prevent confusion due to time zone crossing. See the N560DP flight status page for this flight to view local times or setup timezone preferences in your user account.

Time Position Orientation Groundspeed Altitude Reporting Facility
EDT Latitude Longitude Course Direction KTS MPH feet Rate Location/Type
Tue 03:18:49 PM 40.8167 -74.1333 246° West 203 234 1,500  Level New York TRACON
Tue 03:19:49 PM 40.8167 -74.2000 270° West 186 214 2,700 1,850 Climbing New York TRACON
Tue 03:20:49 PM 40.8167 -74.2667 270° West 213 245 5,200 2,700 Climbing New York TRACON
Tue 03:21:49 PM 40.8000 -74.3500 255° West 259 298 8,100 2,772 Climbing New York TRACON
Tue 03:23:53 PM 40.7331 -74.5311 244° Southwest 277 319 13,700 2,934 Climbing New York Center
Tue 03:24:00 PM 40.6109 -74.8007 246° West  Level FlightAware Approximate
Tue 03:24:51 PM 40.6986 -74.6306 245° Southwest 277 319 17,000  Level New York Center
Tue 03:25:52 PM 40.6708 -74.7111 246° West 272 313 19,400 2,361 Climbing New York Center
Tue 03:26:53 PM 40.6386 -74.8022 245° Southwest 272 313 21,800 2,269 Climbing New York Center
Tue 03:27:51 PM 40.6061 -74.8986 246° West 278 320 23,900 2,100 Climbing New York Center
Tue 03:28:53 PM 40.5669 -75.0028 244° Southwest 300 345 26,000 2,033 Climbing New York Center
Tue 03:29:52 PM 40.5156 -75.1006 235° Southwest 315 362 28,000 2,000 Climbing New York Center
Tue 03:30:53 PM 40.4558 -75.1950 230° Southwest 334 384 30,000 1,881 Climbing New York Center
Tue 03:31:50 PM 40.3936 -75.2947 231° Southwest 344 396 31,700 1,678 Climbing New York Center
Tue 03:32:51 PM 40.3292 -75.3967 230° Southwest 357 411 33,300 1,587 Climbing New York Center
Tue 03:33:51 PM 40.2692 -75.4933 231° Southwest 357 411 34,900 1,537 Climbing New York Center
Tue 03:34:52 PM 40.2067 -75.5950 231° Southwest 362 417 36,400 1,659 Climbing New York Center
Tue 03:35:54 PM 40.1394 -75.7044 231° Southwest 362 417 38,300 1,550 Climbing New York Center
Tue 03:36:52 PM 40.0792 -75.8033 231° Southwest 362 417 39,500 864 Climbing New York Center
Tue 03:37:52 PM 40.0164 -75.9044 231° Southwest 362 417 40,000 248 Climbing New York Center
Tue 03:38:53 PM 39.9469 -76.0103 229° Southwest 377 434 40,000  Level New York Center
Tue 03:39:51 PM 39.8814 -76.1300 235° Southwest 394 453 40,000  Level New York Center
Tue 03:40:51 PM 39.8433 -76.2731 251° West 413 475 40,000  Level New York Center
Tue 03:41:52 PM 39.8097 -76.4136 253° West 413 475 40,000  Level New York Center
Tue 03:42:51 PM 39.7775 -76.5625 254° West 419 482 40,000  Level New York Center
Tue 03:43:52 PM 39.7431 -76.7081 253° West 424 488 40,000  Level New York Center
Tue 03:45:20 PM 39.6917 -76.9183 252° West 432 497 40,000  Level Washington Center
Tue 03:46:20 PM 39.6567 -77.0658 253° West 432 497 40,000  Level Washington Center
Tue 03:47:20 PM 39.6217 -77.2106 253° West 437 503 40,000  Level Washington Center
Tue 03:48:18 PM 39.5906 -77.3444 253° West 437 503 40,000  Level Washington Center
Tue 03:49:18 PM 39.5569 -77.4892 253° West 437 503 40,000  Level Washington Center
Tue 03:50:19 PM 39.5214 -77.6308 252° West 431 496 40,000  Level Washington Center
Tue 03:51:20 PM 39.4897 -77.7750 254° West 426 490 40,000  Level Washington Center
Tue 03:52:18 PM 39.4517 -77.9192 251° West 421 484 40,000  Level Washington Center
Tue 03:53:19 PM 39.4156 -78.0603 252° West 421 484 40,000  Level Washington Center
Tue 03:54:20 PM 39.3811 -78.2014 253° West 421 484 40,000  Level Washington Center
Tue 03:55:20 PM 39.3447 -78.3450 252° West 421 484 40,000  Level Washington Center
Tue 03:56:18 PM 39.3081 -78.4858 251° West 421 484 40,000  Level Washington Center
Tue 03:57:19 PM 39.2733 -78.6292 253° West 421 484 40,000  Level Washington Center
Tue 03:58:19 PM 39.2361 -78.7697 251° West 421 484 40,000  Level Washington Center
Tue 03:59:20 PM 39.2011 -78.9156 253° West 421 484 40,000  Level Washington Center
Tue 04:00:18 PM 39.1636 -79.0558 251° West 421 484 40,000  Level Washington Center
Tue 04:01:18 PM 39.1283 -79.1958 252° West 421 484 40,000  Level Washington Center
Tue 04:02:19 PM 39.0883 -79.3492 251° West 413 475 40,000  Level Washington Center
Tue 04:03:20 PM 39.0544 -79.4917 253° West 418 481 40,000  Level Washington Center
Tue 04:04:18 PM 39.0142 -79.6364 250° West 423 487 40,000  Level Washington Center
Tue 04:06:32 PM 38.9311 -79.9369 251° West 416 479 40,000  Level Indianapolis Center
Tue 04:07:34 PM 38.8942 -80.0739 251° West 419 482 40,000  Level Indianapolis Center
Tue 04:08:36 PM 38.8506 -80.2322 251° West 418 481 40,000  Level Indianapolis Center
Tue 04:09:38 PM 38.8125 -80.3747 251° West 421 484 40,000  Level Indianapolis Center
Tue 04:10:40 PM 38.7728 -80.5172 250° West 423 487 40,000  Level Indianapolis Center
Tue 04:11:42 PM 38.7336 -80.6575 250° West 420 483 40,000  Level Indianapolis Center
Tue 04:12:44 PM 38.6964 -80.7994 251° West 420 483 40,000  Level Indianapolis Center
Tue 04:13:45 PM 38.6558 -80.9403 250° West 421 484 40,000  Level Indianapolis Center
Tue 04:14:47 PM 38.6078 -81.1111 250° West 422 486 40,000  Level Indianapolis Center
Tue 04:15:49 PM 38.5667 -81.2533 250° West 422 486 40,000  Level Indianapolis Center
Tue 04:16:51 PM 38.5261 -81.3986 250° West 427 491 40,000  Level Indianapolis Center
Tue 04:17:52 PM 38.4847 -81.5450 250° West 430 495 40,000  Level Indianapolis Center
Tue 04:18:54 PM 38.4439 -81.6892 250° West 428 493 40,000  Level Indianapolis Center
Tue 04:19:56 PM 38.4028 -81.8322 250° West 427 491 40,000  Level Indianapolis Center
Tue 04:20:58 PM 38.3622 -81.9742 250° West 425 489 40,000  Level Indianapolis Center
Tue 04:22:00 PM 38.3203 -82.1181 250° West 430 495 40,000  Level Indianapolis Center
Tue 04:23:02 PM 38.2783 -82.2608 250° West 430 495 40,000  Level Indianapolis Center
Tue 04:24:03 PM 38.2369 -82.4053 250° West 432 497 40,000  Level Indianapolis Center
Tue 04:25:05 PM 38.1864 -82.5731 249° West 429 494 40,000  Level Indianapolis Center
Tue 04:26:07 PM 38.1453 -82.7156 250° West 429 494 40,000  Level Indianapolis Center
Tue 04:27:09 PM 38.1022 -82.8567 249° West 428 493 40,000  Level Indianapolis Center
Tue 04:28:11 PM 38.0583 -82.9997 249° West 433 498 40,000 -48 Level Indianapolis Center
Tue 04:29:13 PM 38.0161 -83.1447 250° West 436 502 39,900 -1,065 Descending Indianapolis Center
Tue 04:30:15 PM 37.9633 -83.3142 248° West 441 507 37,800 -1,805 Descending Indianapolis Center
Tue 04:31:16 PM 37.9194 -83.4592 249° West 441 507 36,200 -927 Descending Indianapolis Center
Tue 04:32:18 PM 37.8742 -83.6050 249° West 443 510 35,900 -532 Descending Indianapolis Center
Tue 04:33:20 PM 37.8294 -83.7522 249° West 448 516 35,100 -1,161 Descending Indianapolis Center
Tue 04:34:22 PM 37.7828 -83.9019 249° West 456 525 33,500 -1,839 Descending Indianapolis Center
Tue 04:35:24 PM 37.7303 -84.0711 249° West 446 513 31,300 -1,984 Descending Indianapolis Center
Tue 04:36:26 PM 37.6808 -84.2081 246° West 435 501 29,400 -1,694 Descending Indianapolis Center
Tue 04:37:28 PM 37.6142 -84.3367 237° Southwest 438 504 27,800 -1,452 Descending Indianapolis Center
Tue 04:38:30 PM 37.5517 -84.4644 238° Southwest 432 497 26,400 -1,306 Descending Indianapolis Center
Tue 04:39:32 PM 37.4847 -84.5922 237° Southwest 437 503 25,100 -1,355 Descending Indianapolis Center
Tue 04:40:34 PM 37.4122 -84.7425 239° Southwest 433 498 23,600 -1,258 Descending Indianapolis Center
Tue 04:41:36 PM 37.3542 -84.8714 240° Southwest 423 487 22,500 -871 Descending Indianapolis Center
Tue 04:42:38 PM 37.3219 -85.0125 254° West 420 483 21,800 -774 Descending Indianapolis Center
Tue 04:43:40 PM 37.2883 -85.1497 253° West 413 475 20,900 -1,065 Descending Indianapolis Center
Tue 04:44:42 PM 37.2531 -85.2872 252° West 413 475 19,600 -1,548 Descending Indianapolis Center
Tue 04:45:44 PM 37.2203 -85.4158 252° West 392 451 17,700 -1,887 Descending Indianapolis Center
Tue 04:46:46 PM 37.1878 -85.5525 253° West 367 422 15,700 -1,887 Descending Indianapolis Center
Tue 04:47:48 PM 37.1575 -85.6706 252° West 359 413 13,800 -1,839 Descending Indianapolis Center
Tue 04:48:50 PM 37.1261 -85.7919 252° West 361 415 11,900 -1,790 Descending Indianapolis Center
Tue 04:49:52 PM 37.0972 -85.9058 252° West 347 399 10,100 -1,742 Descending Indianapolis Center
Tue 04:50:54 PM 37.0719 -86.0053 252° West 305 351 8,300 -1,839 Descending Indianapolis Center
Tue 04:51:56 PM 37.0453 -86.1089 252° West 270 311 6,300 -1,790 Descending Indianapolis Center
Tue 04:52:58 PM 37.0264 -86.1911 254° West 248 285 4,600 -1,452 Descending Indianapolis Center
Tue 04:54:00 PM 37.0142 -86.2644 258° West 223 257 3,300 -1,210 Descending Indianapolis Center
Tue 04:55:02 PM 37.0058 -86.3300 261° West 200 230 2,100 -871 Descending Indianapolis Center
Tue 04:56:04 PM 37.0003 -86.3981 264° West 189 217 1,500 -581 Descending Indianapolis Center
Tue 04:58:00 PM 36.9645 -86.4197 238° Southwest  Level Estimated

Login

Don't have an account? Register now (free) for customized features, flight alerts, and more!